createdAt,value
2023-03-03T00:01:30.496Z,4.10
2023-03-03T00:03:06.364Z,4.10
2023-03-03T00:04:40.513Z,4.00
2023-03-03T00:06:15.116Z,4.00
2023-03-03T00:07:47.767Z,4.00
2023-03-03T00:09:20.481Z,4.00
2023-03-03T00:10:55.416Z,4.00
2023-03-03T00:12:30.062Z,4.00
2023-03-03T00:14:02.908Z,4.00
2023-03-03T00:15:36.410Z,3.90
2023-03-03T00:17:24.279Z,3.90
2023-03-03T00:18:57.062Z,4.00
2023-03-03T00:20:36.300Z,4.00
2023-03-03T00:22:17.085Z,4.00
2023-03-03T00:23:50.512Z,4.00
2023-03-03T00:25:30.159Z,4.00
2023-03-03T00:27:16.895Z,4.00
2023-03-03T00:28:50.979Z,4.00
2023-03-03T00:30:26.049Z,4.00
2023-03-03T00:32:18.419Z,4.00
2023-03-03T00:33:54.671Z,4.00
2023-03-03T00:35:30.128Z,4.00
2023-03-03T00:37:04.387Z,4.00
2023-03-03T00:38:37.631Z,4.00
2023-03-03T00:40:25.132Z,4.00
2023-03-03T00:41:58.126Z,4.00
2023-03-03T00:43:37.150Z,3.90
2023-03-03T00:45:38.154Z,3.90
2023-03-03T00:47:31.588Z,3.90
2023-03-03T00:49:20.818Z,3.90
2023-03-03T00:50:55.318Z,3.80
2023-03-03T00:52:29.455Z,3.80
2023-03-03T00:54:02.156Z,3.70
2023-03-03T00:55:35.000Z,3.70
2023-03-03T00:57:07.687Z,3.70
2023-03-03T00:58:40.406Z,3.70
2023-03-03T01:00:13.600Z,3.70
2023-03-03T01:01:46.347Z,3.70
2023-03-03T01:03:20.560Z,3.70
2023-03-03T01:04:56.332Z,3.70
2023-03-03T01:06:29.186Z,3.70
2023-03-03T01:08:04.033Z,3.70
2023-03-03T01:09:35.759Z,3.70
2023-03-03T01:11:13.168Z,3.60
2023-03-03T01:12:46.002Z,3.70
2023-03-03T01:14:19.215Z,3.60
2023-03-03T01:15:52.484Z,3.60
2023-03-03T01:17:24.364Z,3.60
2023-03-03T01:18:57.088Z,3.50
2023-03-03T01:20:29.791Z,3.60
2023-03-03T01:22:02.889Z,3.50
2023-03-03T01:23:37.131Z,3.50
2023-03-03T01:25:10.852Z,3.50
2023-03-03T01:26:43.628Z,3.50
2023-03-03T01:28:16.406Z,3.50
2023-03-03T01:29:48.187Z,3.60
2023-03-03T01:31:21.009Z,3.50
2023-03-03T01:32:53.958Z,3.50
2023-03-03T01:34:25.843Z,3.50
2023-03-03T01:35:58.698Z,3.50
2023-03-03T01:37:31.461Z,3.40
2023-03-03T01:39:05.630Z,3.40
2023-03-03T01:40:38.915Z,3.30
2023-03-03T01:42:10.641Z,3.30
2023-03-03T01:43:46.244Z,3.30
2023-03-03T01:45:24.536Z,3.30
2023-03-03T01:47:00.619Z,3.30
2023-03-03T01:48:38.243Z,3.30
2023-03-03T01:50:14.012Z,3.30
2023-03-03T01:51:53.583Z,3.40
2023-03-03T01:53:33.390Z,3.40
2023-03-03T01:55:12.984Z,3.40
2023-03-03T01:56:45.754Z,3.40
2023-03-03T01:58:22.388Z,3.30
2023-03-03T01:59:56.401Z,3.40
2023-03-03T02:01:31.423Z,3.40
2023-03-03T02:03:04.496Z,3.30
2023-03-03T02:04:37.357Z,3.30
2023-03-03T02:06:15.405Z,3.30
2023-03-03T02:07:48.387Z,3.30
2023-03-03T02:09:27.472Z,3.30
2023-03-03T02:11:02.060Z,3.30
2023-03-03T02:12:38.654Z,3.30
2023-03-03T02:14:12.467Z,3.20
2023-03-03T02:15:45.302Z,3.20
2023-03-03T02:17:17.227Z,3.20
2023-03-03T02:18:50.287Z,3.20
2023-03-03T02:20:45.577Z,3.20
2023-03-03T02:22:22.772Z,3.20
2023-03-03T02:24:01.366Z,3.10
2023-03-03T02:25:41.506Z,3.10
2023-03-03T02:27:15.632Z,3.10
2023-03-03T02:28:48.354Z,3.10
2023-03-03T02:30:24.092Z,3.00
2023-03-03T02:31:56.908Z,3.00
2023-03-03T02:33:30.232Z,3.00
2023-03-03T02:35:02.018Z,2.90
2023-03-03T02:36:36.638Z,3.00
2023-03-03T02:38:17.125Z,3.00
2023-03-03T02:39:49.816Z,3.00
2023-03-03T02:41:32.569Z,3.00
2023-03-03T02:43:07.946Z,2.90
2023-03-03T02:44:40.684Z,2.90
2023-03-03T02:46:13.483Z,2.90
2023-03-03T02:47:49.881Z,2.90
2023-03-03T02:49:24.914Z,2.90
2023-03-03T02:50:56.723Z,2.90
2023-03-03T02:52:29.417Z,2.90
2023-03-03T02:54:02.360Z,3.00
2023-03-03T02:55:35.076Z,3.00
2023-03-03T02:57:08.975Z,3.00
2023-03-03T02:58:42.179Z,2.90
2023-03-03T03:00:15.552Z,2.90
2023-03-03T03:01:49.240Z,3.00
2023-03-03T03:03:21.088Z,3.00
2023-03-03T03:04:53.859Z,2.90
2023-03-03T03:06:26.814Z,2.90
2023-03-03T03:07:59.512Z,2.90
2023-03-03T03:09:32.202Z,2.90
2023-03-03T03:11:06.088Z,2.90
2023-03-03T03:12:38.801Z,2.90
2023-03-03T03:14:14.165Z,2.90
2023-03-03T03:15:46.455Z,2.90
2023-03-03T03:17:19.176Z,2.90
2023-03-03T03:18:52.425Z,2.90
2023-03-03T03:20:25.156Z,2.90
2023-03-03T03:21:57.886Z,2.90
2023-03-03T03:23:30.575Z,2.90
2023-03-03T03:25:03.309Z,2.90
2023-03-03T03:26:36.010Z,2.90
2023-03-03T03:28:07.830Z,2.90
2023-03-03T03:29:42.042Z,2.90
2023-03-03T03:31:15.412Z,2.80
2023-03-03T03:32:47.191Z,2.90
2023-03-03T03:34:19.868Z,2.80
2023-03-03T03:35:52.635Z,2.80
2023-03-03T03:37:25.359Z,2.80
2023-03-03T03:38:58.075Z,2.80
2023-03-03T03:40:31.044Z,2.80
2023-03-03T03:42:03.784Z,2.80
2023-03-03T03:43:35.947Z,2.70
2023-03-03T03:45:15.216Z,2.70
2023-03-03T03:46:47.967Z,2.70
2023-03-03T03:48:20.041Z,2.60
2023-03-03T03:49:52.739Z,2.70
2023-03-03T03:51:25.463Z,2.60
2023-03-03T03:52:58.149Z,2.60
2023-03-03T03:54:30.946Z,2.60
2023-03-03T03:56:03.679Z,2.60
2023-03-03T03:57:35.458Z,2.60
2023-03-03T03:59:08.314Z,2.60
2023-03-03T04:00:42.111Z,2.60
2023-03-03T04:02:14.952Z,2.60
2023-03-03T04:03:48.985Z,2.60
2023-03-03T04:05:21.764Z,2.50
2023-03-03T04:06:54.611Z,2.50
2023-03-03T04:08:26.477Z,2.40
2023-03-03T04:09:59.159Z,2.40
2023-03-03T04:11:31.246Z,2.40
2023-03-03T04:13:04.067Z,2.40
2023-03-03T04:14:36.786Z,2.30
2023-03-03T04:16:10.976Z,2.30
2023-03-03T04:17:42.912Z,2.30
2023-03-03T04:19:15.677Z,2.20
2023-03-03T04:20:48.542Z,2.20
2023-03-03T04:22:21.723Z,2.20
2023-03-03T04:23:53.476Z,2.20
2023-03-03T04:25:26.569Z,2.20
2023-03-03T04:26:59.246Z,2.20
2023-03-03T04:28:32.017Z,2.10
2023-03-03T04:30:06.460Z,2.10
2023-03-03T04:31:40.616Z,2.10
2023-03-03T04:33:13.292Z,2.10
2023-03-03T04:34:48.894Z,2.00
2023-03-03T04:36:23.901Z,2.00
2023-03-03T04:37:56.588Z,2.00
2023-03-03T04:39:28.538Z,1.90
2023-03-03T04:41:01.255Z,1.90
2023-03-03T04:42:34.382Z,1.90
2023-03-03T04:44:07.279Z,1.90
2023-03-03T04:45:39.131Z,1.90
2023-03-03T04:47:13.208Z,1.90
2023-03-03T04:48:44.969Z,1.80
2023-03-03T04:50:17.838Z,1.80
2023-03-03T04:51:50.572Z,1.80
2023-03-03T04:53:23.258Z,1.70
2023-03-03T04:54:55.094Z,1.70
2023-03-03T04:56:28.458Z,1.70
2023-03-03T04:58:01.171Z,1.70
2023-03-03T04:59:33.913Z,1.70
2023-03-03T05:01:06.849Z,1.70
2023-03-03T05:02:41.254Z,1.70
2023-03-03T05:04:14.064Z,1.70
2023-03-03T05:05:47.882Z,1.60
2023-03-03T05:07:20.799Z,1.60
2023-03-03T05:08:53.496Z,1.60
2023-03-03T05:10:26.202Z,1.60
2023-03-03T05:11:57.984Z,1.50
2023-03-03T05:13:31.583Z,1.50
2023-03-03T05:15:04.681Z,1.50
2023-03-03T05:16:37.352Z,1.50
2023-03-03T05:18:12.329Z,1.40
2023-03-03T05:19:45.012Z,1.40
2023-03-03T05:21:17.727Z,1.40
2023-03-03T05:22:50.397Z,1.40
2023-03-03T05:24:23.843Z,1.40
2023-03-03T05:25:56.753Z,1.40
2023-03-03T05:27:29.461Z,1.40
2023-03-03T05:29:02.140Z,1.50
2023-03-03T05:30:35.014Z,1.50
2023-03-03T05:32:07.965Z,1.50
2023-03-03T05:33:42.047Z,1.50
2023-03-03T05:35:14.741Z,1.50
2023-03-03T05:36:47.488Z,1.50
2023-03-03T05:38:20.176Z,1.50
2023-03-03T05:39:52.886Z,1.40
2023-03-03T05:41:25.749Z,1.50
2023-03-03T05:42:58.459Z,1.50
2023-03-03T05:44:31.182Z,1.50
2023-03-03T05:46:04.114Z,1.50
2023-03-03T05:47:35.957Z,1.50
2023-03-03T05:49:10.216Z,1.50
2023-03-03T05:50:42.952Z,1.50
2023-03-03T05:52:15.660Z,1.50
2023-03-03T05:53:48.425Z,1.50
2023-03-03T05:55:21.304Z,1.50
2023-03-03T05:56:54.140Z,1.50
2023-03-03T05:58:26.944Z,1.50
2023-03-03T05:59:59.851Z,1.50
2023-03-03T06:01:32.822Z,1.50
2023-03-03T06:03:05.576Z,1.50
2023-03-03T06:04:39.869Z,1.40
2023-03-03T06:06:14.092Z,1.50
2023-03-03T06:07:46.846Z,1.40
2023-03-03T06:09:20.416Z,1.40
2023-03-03T06:10:53.121Z,1.50
2023-03-03T06:12:25.949Z,1.50
2023-03-03T06:13:58.717Z,1.50
2023-03-03T06:15:31.517Z,1.50
2023-03-03T06:17:04.251Z,1.50
2023-03-03T06:18:36.977Z,1.60
2023-03-03T06:20:12.512Z,1.60
2023-03-03T06:21:45.233Z,1.60
2023-03-03T06:23:18.784Z,1.50
2023-03-03T06:24:52.491Z,1.50
2023-03-03T06:26:25.220Z,1.50
2023-03-03T06:27:57.995Z,1.50
2023-03-03T06:29:30.731Z,1.40
2023-03-03T06:31:02.877Z,1.40
2023-03-03T06:32:35.681Z,1.50
2023-03-03T06:34:08.405Z,1.50
2023-03-03T06:35:42.521Z,1.50
2023-03-03T06:37:15.288Z,1.50
2023-03-03T06:38:48.059Z,1.50
2023-03-03T06:40:20.932Z,1.50
2023-03-03T06:41:53.643Z,1.50
2023-03-03T06:43:26.360Z,1.50
2023-03-03T06:44:59.060Z,1.40
2023-03-03T06:46:30.851Z,1.40
2023-03-03T06:48:03.949Z,1.40
2023-03-03T06:49:36.964Z,1.40
2023-03-03T06:51:23.354Z,1.40
2023-03-03T06:53:03.002Z,1.40
2023-03-03T06:54:35.742Z,1.30
2023-03-03T06:56:10.286Z,1.30
2023-03-03T06:57:42.990Z,1.40
2023-03-03T06:59:18.437Z,1.40
2023-03-03T07:00:55.550Z,1.40
2023-03-03T07:02:28.409Z,1.40
2023-03-03T07:04:01.346Z,1.50
2023-03-03T07:05:34.522Z,1.50
2023-03-03T07:07:16.232Z,1.50
2023-03-03T07:08:49.369Z,1.50
2023-03-03T07:10:25.086Z,1.50
2023-03-03T07:12:03.591Z,1.50
2023-03-03T07:13:39.814Z,1.50
2023-03-03T07:15:17.503Z,1.60
2023-03-03T07:16:57.560Z,1.60
2023-03-03T07:18:37.935Z,1.60
2023-03-03T07:20:19.649Z,1.60
2023-03-03T07:21:53.546Z,1.60
2023-03-03T07:23:31.181Z,1.60
2023-03-03T07:25:19.152Z,1.60
2023-03-03T07:26:52.559Z,1.60
2023-03-03T07:28:26.563Z,1.60
2023-03-03T07:30:18.492Z,1.60
2023-03-03T07:31:51.867Z,1.60
2023-03-03T07:33:27.448Z,1.70
2023-03-03T07:35:00.171Z,1.80
2023-03-03T07:36:37.179Z,2.00
2023-03-03T07:38:24.115Z,2.20
2023-03-03T07:39:59.048Z,2.50
2023-03-03T07:41:35.578Z,2.70
2023-03-03T07:43:30.363Z,2.90
2023-03-03T07:45:04.251Z,3.00
2023-03-03T07:46:42.618Z,3.20
2023-03-03T07:48:24.783Z,3.30
2023-03-03T07:50:01.094Z,3.50
2023-03-03T07:51:41.908Z,3.70
2023-03-03T07:53:24.739Z,3.80
2023-03-03T07:55:01.791Z,3.90
2023-03-03T07:56:36.874Z,4.00
2023-03-03T07:58:23.105Z,4.10
2023-03-03T08:00:01.085Z,4.30
2023-03-03T08:01:42.589Z,4.40
2023-03-03T08:03:18.705Z,4.60
2023-03-03T08:04:52.722Z,4.70
2023-03-03T08:06:40.155Z,4.70
2023-03-03T08:08:22.734Z,4.80
2023-03-03T08:10:00.730Z,4.90
2023-03-03T08:11:33.454Z,5.10
2023-03-03T08:13:18.076Z,5.30
2023-03-03T08:14:53.450Z,5.40
2023-03-03T08:16:38.613Z,5.50
2023-03-03T08:18:22.556Z,5.60
2023-03-03T08:19:56.960Z,5.80
2023-03-03T08:21:31.822Z,5.90
2023-03-03T08:23:04.581Z,6.00
2023-03-03T08:24:38.584Z,5.90
2023-03-03T08:26:13.956Z,6.00
2023-03-03T08:27:46.662Z,6.00
2023-03-03T08:29:19.351Z,6.00
2023-03-03T08:31:02.708Z,6.00
2023-03-03T08:32:41.852Z,6.10
2023-03-03T08:34:14.659Z,6.10
2023-03-03T08:35:48.208Z,6.10
2023-03-03T08:37:20.958Z,6.10
2023-03-03T08:38:53.656Z,5.90
2023-03-03T08:40:26.395Z,5.90
2023-03-03T08:42:00.420Z,5.90
2023-03-03T08:43:33.192Z,5.90
2023-03-03T08:45:06.559Z,6.00
2023-03-03T08:46:39.311Z,6.10
2023-03-03T08:48:12.828Z,6.20
2023-03-03T08:49:45.550Z,6.30
2023-03-03T08:51:18.367Z,6.40
2023-03-03T08:52:51.435Z,6.50
2023-03-03T08:54:24.160Z,6.60
2023-03-03T08:55:57.199Z,6.60
2023-03-03T08:57:31.343Z,6.60
2023-03-03T08:59:04.361Z,6.80
2023-03-03T09:00:38.276Z,6.90
2023-03-03T09:02:11.046Z,7.00
2023-03-03T09:03:43.918Z,7.00
2023-03-03T09:05:17.260Z,7.00
2023-03-03T09:06:49.969Z,7.10
2023-03-03T09:08:22.664Z,7.10
2023-03-03T09:09:55.368Z,7.10
2023-03-03T09:11:30.454Z,7.10
2023-03-03T09:13:11.636Z,7.10
2023-03-03T09:14:45.077Z,7.20
2023-03-03T09:16:17.793Z,7.20
2023-03-03T09:17:51.302Z,7.30
2023-03-03T09:19:27.392Z,7.40
2023-03-03T09:21:00.122Z,7.50
2023-03-03T09:22:38.784Z,7.50
2023-03-03T09:24:23.882Z,7.50
2023-03-03T09:25:57.028Z,7.50
2023-03-03T09:27:32.002Z,7.60
2023-03-03T09:29:24.667Z,7.60
2023-03-03T09:30:59.419Z,7.70
2023-03-03T09:32:35.715Z,7.80
2023-03-03T09:34:21.031Z,7.90
2023-03-03T09:35:59.236Z,8.00
2023-03-03T09:37:37.391Z,8.10
2023-03-03T09:39:18.196Z,8.20
2023-03-03T09:41:13.933Z,8.30
2023-03-03T09:43:03.998Z,8.40
2023-03-03T09:45:10.757Z,8.50
2023-03-03T09:46:56.637Z,8.70
2023-03-03T09:48:51.194Z,8.80
2023-03-03T09:50:35.198Z,9.00
2023-03-03T09:52:26.509Z,9.30
2023-03-03T09:54:14.830Z,9.50
2023-03-03T09:55:55.129Z,9.80
2023-03-03T09:57:41.148Z,10.00
2023-03-03T09:59:28.525Z,10.10
2023-03-03T10:01:14.045Z,10.20
2023-03-03T10:03:01.369Z,10.10
2023-03-03T10:04:49.018Z,10.00
2023-03-03T10:06:28.007Z,10.10
2023-03-03T10:08:22.737Z,10.30
2023-03-03T10:10:18.727Z,10.60
2023-03-03T10:11:59.625Z,10.60
2023-03-03T10:13:58.510Z,10.30
2023-03-03T10:15:42.939Z,10.20
2023-03-03T10:17:27.179Z,10.20
2023-03-03T10:19:04.135Z,10.40
2023-03-03T10:20:51.284Z,10.50
2023-03-03T10:22:33.845Z,10.50
2023-03-03T10:24:22.074Z,10.60
2023-03-03T10:26:05.044Z,10.60
2023-03-03T10:27:49.662Z,10.40
2023-03-03T10:29:33.975Z,10.30
2023-03-03T10:31:19.939Z,10.40
2023-03-03T10:32:59.119Z,10.50
2023-03-03T10:34:51.218Z,10.60
2023-03-03T10:36:50.392Z,10.60
2023-03-03T10:38:50.049Z,10.70
2023-03-03T10:40:28.289Z,11.00
2023-03-03T10:42:20.886Z,11.00
2023-03-03T10:44:06.827Z,10.90
2023-03-03T10:45:57.060Z,10.90
2023-03-03T10:47:47.640Z,11.00
2023-03-03T10:49:31.844Z,11.10
2023-03-03T10:51:17.230Z,10.90
2023-03-03T10:52:54.969Z,11.00
2023-03-03T10:54:49.374Z,11.00
2023-03-03T10:56:50.309Z,11.10
2023-03-03T10:58:39.781Z,11.20
2023-03-03T11:00:22.631Z,11.40
2023-03-03T11:01:59.854Z,11.60
2023-03-03T11:03:58.283Z,11.80
2023-03-03T11:05:40.975Z,12.00
2023-03-03T11:07:21.506Z,11.80
2023-03-03T11:09:00.075Z,11.70
2023-03-03T11:10:48.839Z,11.60
2023-03-03T11:12:30.253Z,11.50
2023-03-03T11:14:10.560Z,11.50
2023-03-03T11:15:53.998Z,11.50
2023-03-03T11:17:37.201Z,11.30
2023-03-03T11:19:26.319Z,11.40
2023-03-03T11:21:08.353Z,11.50
2023-03-03T11:22:48.187Z,11.60
2023-03-03T11:24:36.608Z,11.80
2023-03-03T11:26:13.542Z,11.80
2023-03-03T11:28:06.196Z,11.80
2023-03-03T11:29:53.398Z,11.60
2023-03-03T11:31:32.141Z,11.50
2023-03-03T11:33:10.784Z,11.60
2023-03-03T11:35:06.865Z,11.50
2023-03-03T11:36:47.045Z,11.30
2023-03-03T11:38:31.284Z,11.10
2023-03-03T11:40:13.131Z,10.80
2023-03-03T11:42:00.866Z,10.60
2023-03-03T11:43:38.070Z,10.60
2023-03-03T11:45:18.847Z,10.70
2023-03-03T11:46:57.279Z,10.70
2023-03-03T11:48:37.815Z,10.70
2023-03-03T11:50:19.121Z,10.80
2023-03-03T11:52:03.457Z,11.00
2023-03-03T11:53:51.180Z,11.00
2023-03-03T11:55:28.476Z,11.00
2023-03-03T11:57:13.187Z,11.00
2023-03-03T11:58:50.775Z,11.10
2023-03-03T12:00:29.733Z,11.20
2023-03-03T12:02:08.082Z,11.30
2023-03-03T12:03:46.063Z,11.30
2023-03-03T12:05:34.332Z,11.30
2023-03-03T12:07:23.464Z,11.20
2023-03-03T12:09:10.414Z,11.10
2023-03-03T12:10:50.154Z,11.20
2023-03-03T12:12:25.152Z,11.30
2023-03-03T12:14:02.769Z,11.40
2023-03-03T12:15:43.171Z,11.40
2023-03-03T12:17:31.073Z,11.50
2023-03-03T12:19:28.118Z,11.40
2023-03-03T12:21:15.028Z,11.10
2023-03-03T12:23:06.458Z,11.00
2023-03-03T12:25:10.539Z,10.80
2023-03-03T12:26:50.450Z,10.80
2023-03-03T12:28:27.192Z,10.90
2023-03-03T12:30:13.275Z,10.90
2023-03-03T12:31:53.698Z,11.00
2023-03-03T12:33:37.662Z,11.20
2023-03-03T12:35:17.238Z,11.30
2023-03-03T12:37:07.126Z,11.40
2023-03-03T12:38:49.307Z,11.50
2023-03-03T12:40:27.500Z,11.50
2023-03-03T12:42:07.786Z,11.40
2023-03-03T12:44:01.935Z,11.40
2023-03-03T12:45:45.087Z,11.30
2023-03-03T12:47:26.105Z,11.20
2023-03-03T12:48:58.955Z,11.10
2023-03-03T12:50:43.065Z,11.10
2023-03-03T12:52:28.650Z,11.10
2023-03-03T12:54:37.392Z,11.00
2023-03-03T12:56:13.165Z,11.10
2023-03-03T12:57:54.540Z,11.20
2023-03-03T12:59:37.657Z,11.20
2023-03-03T13:01:22.506Z,11.20
2023-03-03T13:03:06.620Z,11.20
2023-03-03T13:04:46.733Z,11.20
2023-03-03T13:06:28.780Z,11.30
2023-03-03T13:08:20.875Z,11.30
2023-03-03T13:10:10.594Z,11.40
2023-03-03T13:12:08.893Z,11.40
2023-03-03T13:13:50.291Z,11.40
2023-03-03T13:15:32.264Z,11.30
2023-03-03T13:17:18.474Z,11.20
2023-03-03T13:18:56.742Z,11.10
2023-03-03T13:20:41.581Z,11.10
2023-03-03T13:22:19.145Z,11.10
2023-03-03T13:23:59.413Z,11.10
2023-03-03T13:25:51.519Z,11.10
2023-03-03T13:27:28.729Z,11.10
2023-03-03T13:29:10.254Z,11.10
2023-03-03T13:30:49.800Z,11.10
2023-03-03T13:32:24.972Z,11.00
2023-03-03T13:34:00.458Z,11.00
2023-03-03T13:35:41.000Z,11.00
2023-03-03T13:37:20.769Z,11.00
2023-03-03T13:38:58.460Z,11.00
2023-03-03T13:40:41.681Z,10.90
2023-03-03T13:42:24.689Z,10.90
2023-03-03T13:44:02.968Z,10.80
2023-03-03T13:45:43.507Z,10.80
2023-03-03T13:47:24.023Z,10.80
2023-03-03T13:49:14.281Z,10.90
2023-03-03T13:50:52.019Z,10.90
2023-03-03T13:52:29.012Z,10.80
2023-03-03T13:54:13.442Z,10.70
2023-03-03T13:55:51.748Z,10.60
2023-03-03T13:57:45.646Z,10.50
2023-03-03T13:59:29.731Z,10.50
2023-03-03T14:01:07.401Z,10.50
2023-03-03T14:03:00.318Z,10.50
2023-03-03T14:04:48.198Z,10.50
2023-03-03T14:06:23.935Z,10.50
2023-03-03T14:08:00.596Z,10.50
2023-03-03T14:09:49.379Z,10.60
2023-03-03T14:11:26.106Z,10.60
2023-03-03T14:13:05.731Z,10.70
2023-03-03T14:14:48.360Z,10.70
2023-03-03T14:16:40.330Z,10.70
2023-03-03T14:18:24.930Z,10.70
2023-03-03T14:20:12.823Z,10.80
2023-03-03T14:21:56.835Z,10.70
2023-03-03T14:23:40.097Z,10.70
2023-03-03T14:25:14.761Z,10.60
2023-03-03T14:26:49.675Z,10.60
2023-03-03T14:28:25.295Z,10.60
2023-03-03T14:29:58.151Z,10.60
2023-03-03T14:31:40.670Z,10.50
2023-03-03T14:33:21.020Z,10.50
2023-03-03T14:35:02.692Z,10.30
2023-03-03T14:36:40.041Z,10.30
2023-03-03T14:38:15.272Z,10.20
2023-03-03T14:39:51.912Z,10.30
2023-03-03T14:41:37.490Z,10.20
2023-03-03T14:43:24.794Z,10.20
2023-03-03T14:44:59.290Z,10.30
2023-03-03T14:46:40.492Z,10.30
2023-03-03T14:48:18.286Z,10.30
2023-03-03T14:49:51.885Z,10.40
2023-03-03T14:51:29.044Z,10.40
2023-03-03T14:53:16.849Z,10.30
2023-03-03T14:54:51.469Z,10.40
2023-03-03T14:56:25.819Z,10.30
2023-03-03T14:58:00.298Z,10.30
2023-03-03T14:59:34.888Z,10.30
2023-03-03T15:01:15.896Z,10.30
2023-03-03T15:03:03.196Z,10.30
2023-03-03T15:04:36.092Z,10.30
2023-03-03T15:06:13.757Z,10.30
2023-03-03T15:07:48.928Z,10.30
2023-03-03T15:09:45.644Z,10.30
2023-03-03T15:11:28.187Z,10.30
2023-03-03T15:13:29.313Z,10.30
2023-03-03T15:15:18.339Z,10.30
2023-03-03T15:16:51.216Z,10.30
2023-03-03T15:18:24.159Z,10.30
2023-03-03T15:20:25.859Z,10.20
2023-03-03T15:22:05.608Z,10.30
2023-03-03T15:23:55.349Z,10.30
2023-03-03T15:25:43.310Z,10.30
2023-03-03T15:27:22.250Z,10.30
2023-03-03T15:29:05.078Z,10.30
2023-03-03T15:30:49.217Z,10.30
2023-03-03T15:32:30.742Z,10.40
2023-03-03T15:34:19.885Z,10.40
2023-03-03T15:35:58.977Z,10.30
2023-03-03T15:37:47.181Z,10.30
2023-03-03T15:39:36.212Z,10.30
2023-03-03T15:41:20.369Z,10.30
2023-03-03T15:42:59.191Z,10.30
2023-03-03T15:44:40.658Z,10.30
2023-03-03T15:46:26.681Z,10.20
2023-03-03T15:48:25.696Z,10.20
2023-03-03T15:50:19.198Z,10.20
2023-03-03T15:52:12.763Z,10.10
2023-03-03T15:54:19.812Z,10.10
2023-03-03T15:56:05.093Z,10.00
2023-03-03T15:57:47.811Z,10.00
2023-03-03T15:59:43.617Z,9.90
2023-03-03T16:01:25.800Z,9.90
2023-03-03T16:03:03.250Z,9.80
2023-03-03T16:04:39.010Z,9.80
2023-03-03T16:06:18.049Z,9.80
2023-03-03T16:08:01.719Z,9.80
2023-03-03T16:09:51.953Z,9.70
2023-03-03T16:11:31.872Z,9.70
2023-03-03T16:13:22.696Z,9.70
2023-03-03T16:15:12.297Z,9.70
2023-03-03T16:16:50.771Z,9.60
2023-03-03T16:18:34.296Z,9.60
2023-03-03T16:20:20.593Z,9.60
2023-03-03T16:22:12.149Z,9.70
2023-03-03T16:23:48.310Z,9.70
2023-03-03T16:25:32.516Z,9.70
2023-03-03T16:27:09.586Z,9.60
2023-03-03T16:29:01.125Z,9.60
2023-03-03T16:30:40.904Z,9.60
2023-03-03T16:32:22.616Z,9.50
2023-03-03T16:34:02.438Z,9.50
2023-03-03T16:35:39.818Z,9.50
2023-03-03T16:37:19.291Z,9.40
2023-03-03T16:38:58.296Z,9.40
2023-03-03T16:40:35.503Z,9.40
2023-03-03T16:42:21.292Z,9.30
2023-03-03T16:44:05.472Z,9.30
2023-03-03T16:45:39.993Z,9.20
2023-03-03T16:47:28.281Z,9.20
2023-03-03T16:49:09.453Z,9.20
2023-03-03T16:50:49.409Z,9.10
2023-03-03T16:52:29.487Z,9.00
2023-03-03T16:54:09.994Z,8.90
2023-03-03T16:55:56.761Z,8.80
2023-03-03T16:57:40.731Z,8.70
2023-03-03T16:59:37.140Z,8.60
2023-03-03T17:01:20.586Z,8.60
2023-03-03T17:03:21.031Z,8.50
2023-03-03T17:04:59.118Z,8.50
2023-03-03T17:06:41.945Z,8.50
2023-03-03T17:08:30.511Z,8.50
2023-03-03T17:10:25.839Z,8.50
2023-03-03T17:12:09.061Z,8.50
2023-03-03T17:13:56.849Z,8.50
2023-03-03T17:15:45.651Z,8.50
2023-03-03T17:17:32.152Z,8.60
2023-03-03T17:19:20.384Z,8.50
2023-03-03T17:20:58.063Z,8.50
2023-03-03T17:22:43.565Z,8.50
2023-03-03T17:24:24.406Z,8.50
2023-03-03T17:26:10.039Z,8.40
2023-03-03T17:27:59.642Z,8.40
2023-03-03T17:30:00.966Z,8.40
2023-03-03T17:31:41.843Z,8.40
2023-03-03T17:33:35.674Z,8.30
2023-03-03T17:35:28.474Z,8.30
2023-03-03T17:37:16.473Z,8.20
2023-03-03T17:39:03.206Z,8.10
2023-03-03T17:40:50.789Z,8.00
2023-03-03T17:42:32.703Z,7.80
2023-03-03T17:44:13.447Z,7.80
2023-03-03T17:45:49.027Z,7.70
2023-03-03T17:47:35.053Z,7.60
2023-03-03T17:49:37.600Z,7.50
2023-03-03T17:51:37.188Z,7.30
2023-03-03T17:53:39.650Z,7.30
2023-03-03T17:55:34.923Z,7.20
2023-03-03T17:57:22.922Z,7.20
2023-03-03T17:59:17.884Z,7.10
2023-03-03T18:01:02.047Z,7.20
2023-03-03T18:02:59.740Z,7.20
2023-03-03T18:04:47.203Z,7.20
2023-03-03T18:06:41.981Z,7.20
2023-03-03T18:08:36.404Z,7.20
2023-03-03T18:10:32.382Z,7.20
2023-03-03T18:12:22.553Z,7.10
2023-03-03T18:14:22.363Z,7.20
2023-03-03T18:16:12.185Z,7.10
2023-03-03T18:17:54.516Z,7.10
2023-03-03T18:19:49.129Z,7.10
2023-03-03T18:21:25.490Z,7.10
2023-03-03T18:23:35.163Z,7.10
2023-03-03T18:25:11.949Z,7.00
2023-03-03T18:26:45.012Z,6.90
2023-03-03T18:28:22.713Z,6.90
2023-03-03T18:30:27.237Z,6.90
2023-03-03T18:32:18.949Z,6.80
2023-03-03T18:34:03.344Z,6.80
2023-03-03T18:35:38.290Z,6.70
2023-03-03T18:37:32.419Z,6.70
2023-03-03T18:39:07.322Z,6.60
2023-03-03T18:40:51.099Z,6.50
2023-03-03T18:42:39.627Z,6.50
2023-03-03T18:44:26.528Z,6.40
2023-03-03T18:45:59.374Z,6.40
2023-03-03T18:48:06.498Z,6.40
2023-03-03T18:50:04.146Z,6.40
2023-03-03T18:52:13.157Z,6.40
2023-03-03T18:54:02.472Z,6.30
2023-03-03T18:55:43.722Z,6.30
2023-03-03T18:57:19.373Z,6.20
2023-03-03T18:58:52.525Z,6.20
2023-03-03T19:00:29.476Z,6.20
2023-03-03T19:02:19.079Z,6.20
2023-03-03T19:04:19.145Z,6.20
2023-03-03T19:05:54.041Z,6.10
2023-03-03T19:07:29.592Z,6.00
2023-03-03T19:09:02.556Z,6.00
2023-03-03T19:10:53.123Z,6.00
2023-03-03T19:12:51.551Z,6.00
2023-03-03T19:14:37.613Z,6.00
2023-03-03T19:16:12.297Z,6.00
2023-03-03T19:17:50.581Z,6.00
2023-03-03T19:19:26.482Z,6.00
2023-03-03T19:21:02.023Z,5.90
2023-03-03T19:22:45.690Z,5.80
2023-03-03T19:24:33.577Z,5.70
2023-03-03T19:26:40.033Z,5.60
2023-03-03T19:28:33.539Z,5.60
2023-03-03T19:30:15.227Z,5.50
2023-03-03T19:31:54.207Z,5.40
2023-03-03T19:33:46.790Z,5.40
2023-03-03T19:35:29.515Z,5.30
2023-03-03T19:37:09.064Z,5.30
2023-03-03T19:38:51.346Z,5.30
2023-03-03T19:40:30.838Z,5.30
2023-03-03T19:42:13.219Z,5.30
2023-03-03T19:44:01.741Z,5.30
2023-03-03T19:45:50.051Z,5.20
2023-03-03T19:47:33.739Z,5.20
2023-03-03T19:49:19.438Z,5.20
2023-03-03T19:51:00.858Z,5.10
2023-03-03T19:52:39.238Z,5.10
2023-03-03T19:54:21.369Z,5.00
2023-03-03T19:56:11.012Z,5.00
2023-03-03T19:57:54.381Z,5.00
2023-03-03T19:59:37.502Z,4.80
2023-03-03T20:01:19.031Z,4.80
2023-03-03T20:03:12.172Z,4.80
2023-03-03T20:04:58.457Z,4.80
2023-03-03T20:06:43.125Z,4.90
2023-03-03T20:08:23.516Z,4.90
2023-03-03T20:10:05.333Z,4.90
2023-03-03T20:11:59.076Z,4.90
2023-03-03T20:13:44.381Z,4.90
2023-03-03T20:15:21.778Z,4.90
2023-03-03T20:16:58.188Z,4.80
2023-03-03T20:18:49.951Z,4.80
2023-03-03T20:20:50.553Z,4.70
2023-03-03T20:22:32.479Z,4.70
2023-03-03T20:24:28.152Z,4.70
2023-03-03T20:26:08.650Z,4.60
2023-03-03T20:27:51.331Z,4.60
2023-03-03T20:29:48.466Z,4.60
2023-03-03T20:31:28.812Z,4.60
2023-03-03T20:33:14.638Z,4.60
2023-03-03T20:34:56.718Z,4.60
2023-03-03T20:36:37.231Z,4.50
2023-03-03T20:38:22.032Z,4.50
2023-03-03T20:40:08.862Z,4.40
2023-03-03T20:41:58.628Z,4.40
2023-03-03T20:43:43.449Z,4.50
2023-03-03T20:45:28.102Z,4.50
2023-03-03T20:47:12.700Z,4.50
2023-03-03T20:49:10.693Z,4.50
2023-03-03T20:50:52.307Z,4.50
2023-03-03T20:52:36.295Z,4.50
2023-03-03T20:54:18.470Z,4.40
2023-03-03T20:56:01.155Z,4.40
2023-03-03T20:57:42.067Z,4.30
2023-03-03T20:59:23.082Z,4.30
2023-03-03T21:01:04.189Z,4.30
2023-03-03T21:02:44.719Z,4.20
2023-03-03T21:04:22.477Z,4.20
2023-03-03T21:05:58.588Z,4.10
2023-03-03T21:07:31.406Z,4.00
2023-03-03T21:09:04.272Z,4.00
2023-03-03T21:10:40.792Z,3.90
2023-03-03T21:12:29.777Z,3.90
2023-03-03T21:14:17.382Z,3.90
2023-03-03T21:15:55.948Z,3.80
2023-03-03T21:17:30.402Z,3.80
2023-03-03T21:19:06.365Z,3.80
2023-03-03T21:20:39.410Z,3.70
2023-03-03T21:22:12.164Z,3.60
2023-03-03T21:23:45.040Z,3.60
2023-03-03T21:25:45.472Z,3.50
2023-03-03T21:27:29.335Z,3.50
2023-03-03T21:29:03.669Z,3.50
2023-03-03T21:30:56.476Z,3.50
2023-03-03T21:32:38.594Z,3.50
2023-03-03T21:34:25.183Z,3.50
2023-03-03T21:36:00.745Z,3.60
2023-03-03T21:37:49.901Z,3.60
2023-03-03T21:39:31.344Z,3.50
2023-03-03T21:41:04.064Z,3.60
2023-03-03T21:42:41.927Z,3.60
2023-03-03T21:44:31.834Z,3.60
2023-03-03T21:46:05.128Z,3.60
2023-03-03T21:47:37.871Z,3.60
2023-03-03T21:49:10.550Z,3.60
2023-03-03T21:50:46.762Z,3.60
2023-03-03T21:52:21.213Z,3.60
2023-03-03T21:53:54.724Z,3.60
2023-03-03T21:55:27.400Z,3.60
2023-03-03T21:57:00.121Z,3.60
2023-03-03T21:58:32.814Z,3.50
2023-03-03T22:00:07.850Z,3.50